createdAt,value
2023-01-12T00:00:05.334Z,33.3820
2023-01-12T00:00:16.527Z,33.3540
2023-01-12T00:00:27.732Z,33.3710
2023-01-12T00:00:38.950Z,33.4060
2023-01-12T00:00:50.070Z,33.4620
2023-01-12T00:01:01.271Z,33.4570
2023-01-12T00:01:12.472Z,33.4230
2023-01-12T00:01:23.671Z,33.3160
2023-01-12T00:01:34.890Z,33.3430
2023-01-12T00:01:46.072Z,33.3770
2023-01-12T00:01:57.316Z,33.3820
2023-01-12T00:02:08.414Z,33.3770
2023-01-12T00:02:19.576Z,33.3660
2023-01-12T00:02:30.660Z,33.4060
2023-01-12T00:02:41.792Z,33.4390
2023-01-12T00:02:52.956Z,33.4110
2023-01-12T00:03:04.171Z,33.2880
2023-01-12T00:03:15.413Z,33.1760
2023-01-12T00:03:26.556Z,33.1420
2023-01-12T00:03:37.759Z,33.1480
2023-01-12T00:03:48.951Z,33.1700
2023-01-12T00:04:00.228Z,33.2020
2023-01-12T00:04:11.412Z,33.2260
2023-01-12T00:04:22.634Z,33.2540
2023-01-12T00:04:33.811Z,33.2650
2023-01-12T00:04:44.955Z,33.2790
2023-01-12T00:04:56.149Z,33.2900
2023-01-12T00:05:07.352Z,33.2720
2023-01-12T00:05:18.451Z,33.2660
2023-01-12T00:05:29.520Z,33.2500
2023-01-12T00:05:40.631Z,33.2160
2023-01-12T00:05:51.830Z,33.2160
2023-01-12T00:06:02.880Z,33.1760
2023-01-12T00:06:13.930Z,33.1650
2023-01-12T00:06:25.112Z,33.1600
2023-01-12T00:06:36.315Z,33.1260
2023-01-12T00:06:47.510Z,33.1100
2023-01-12T00:06:58.712Z,33.1540
2023-01-12T00:07:09.918Z,33.1740
2023-01-12T00:07:21.017Z,33.1630
2023-01-12T00:07:32.094Z,33.1340
2023-01-12T00:07:43.145Z,33.1280
2023-01-12T00:07:54.250Z,33.0950
2023-01-12T00:08:05.425Z,33.0730
2023-01-12T00:08:16.462Z,33.0670
2023-01-12T00:08:27.519Z,33.0730
2023-01-12T00:08:38.567Z,33.0890
2023-01-12T00:08:49.759Z,33.1050
2023-01-12T00:09:00.801Z,33.1000
2023-01-12T00:09:11.850Z,33.0600
2023-01-12T00:09:23.040Z,33.0150
2023-01-12T00:09:34.102Z,32.9930
2023-01-12T00:09:45.171Z,32.9700
2023-01-12T00:09:56.309Z,32.9990
2023-01-12T00:10:07.516Z,32.9700
2023-01-12T00:10:18.714Z,32.9750
2023-01-12T00:10:29.936Z,32.9700
2023-01-12T00:10:41.110Z,32.9530
2023-01-12T00:10:52.317Z,32.9310
2023-01-12T00:11:03.517Z,32.9040
2023-01-12T00:11:14.711Z,32.8690
2023-01-12T00:11:25.901Z,32.8250
2023-01-12T00:11:36.953Z,32.8750
2023-01-12T00:11:48.002Z,32.8360
2023-01-12T00:11:59.190Z,32.7900
2023-01-12T00:12:10.390Z,32.8190
2023-01-12T00:12:21.621Z,32.8190
2023-01-12T00:12:32.791Z,32.7850
2023-01-12T00:12:43.840Z,32.5830
2023-01-12T00:12:54.881Z,32.5050
2023-01-12T00:13:06.110Z,32.5510
2023-01-12T00:13:17.271Z,32.5890
2023-01-12T00:13:28.481Z,32.5830
2023-01-12T00:13:39.679Z,32.5240
2023-01-12T00:13:50.872Z,32.5300
2023-01-12T00:14:02.070Z,32.5520
2023-01-12T00:14:13.271Z,32.4730
2023-01-12T00:14:24.492Z,32.4900
2023-01-12T00:14:35.672Z,32.5240
2023-01-12T00:14:46.732Z,32.5240
2023-01-12T00:14:57.818Z,32.4970
2023-01-12T00:15:08.962Z,32.4350
2023-01-12T00:15:20.219Z,32.4680
2023-01-12T00:15:31.351Z,32.5240
2023-01-12T00:15:42.568Z,32.4850
2023-01-12T00:15:53.682Z,32.4570
2023-01-12T00:16:04.790Z,32.4850
2023-01-12T00:16:15.890Z,32.5080
2023-01-12T00:16:27.100Z,32.4460
2023-01-12T00:16:38.226Z,32.3620
2023-01-12T00:16:49.430Z,32.2930
2023-01-12T00:17:00.631Z,32.2480
2023-01-12T00:17:11.975Z,32.1890
2023-01-12T00:17:23.220Z,32.2290
2023-01-12T00:17:34.251Z,32.2620
2023-01-12T00:17:45.434Z,32.2670
2023-01-12T00:17:56.499Z,32.2560
2023-01-12T00:18:07.525Z,32.2560
2023-01-12T00:18:18.711Z,32.2560
2023-01-12T00:18:29.766Z,32.1890
2023-01-12T00:18:40.836Z,32.1890
2023-01-12T00:18:51.891Z,32.1720
2023-01-12T00:19:02.951Z,32.0610
2023-01-12T00:19:14.069Z,31.9720
2023-01-12T00:19:25.292Z,31.9830
2023-01-12T00:19:36.351Z,32.0500
2023-01-12T00:19:47.411Z,32.0270
2023-01-12T00:19:58.467Z,32.0050
2023-01-12T00:20:09.548Z,32.1000
2023-01-12T00:20:20.665Z,32.1390
2023-01-12T00:20:31.843Z,32.1780
2023-01-12T00:20:43.029Z,32.1830
2023-01-12T00:20:54.137Z,32.1500
2023-01-12T00:21:05.203Z,32.1340
2023-01-12T00:21:16.318Z,32.1270
2023-01-12T00:21:27.518Z,32.0940
2023-01-12T00:21:38.582Z,32.1050
2023-01-12T00:21:49.654Z,32.0670
2023-01-12T00:22:00.802Z,32.0390
2023-01-12T00:22:12.525Z,32.0830
2023-01-12T00:22:23.711Z,32.0670
2023-01-12T00:22:34.760Z,32.0780
2023-01-12T00:22:45.916Z,32.1270
2023-01-12T00:22:57.110Z,32.1450
2023-01-12T00:23:08.316Z,32.1830
2023-01-12T00:23:19.361Z,32.1220
2023-01-12T00:23:30.470Z,32.0940
2023-01-12T00:23:41.591Z,32.1050
2023-01-12T00:23:52.800Z,32.1220
2023-01-12T00:24:04.000Z,32.1450
2023-01-12T00:24:15.190Z,32.1390
2023-01-12T00:24:26.279Z,32.1390
2023-01-12T00:24:37.376Z,32.0610
2023-01-12T00:24:48.432Z,31.9830
2023-01-12T00:24:59.577Z,31.8530
2023-01-12T00:25:10.630Z,31.8920
2023-01-12T00:25:21.756Z,31.9360
2023-01-12T00:25:32.952Z,31.9980
2023-01-12T00:25:43.992Z,31.9530
2023-01-12T00:25:55.047Z,31.8850
2023-01-12T00:26:06.249Z,31.8030
2023-01-12T00:26:17.431Z,31.7410
2023-01-12T00:26:28.649Z,31.8090
2023-01-12T00:26:39.851Z,31.8580
2023-01-12T00:26:51.033Z,31.8580
2023-01-12T00:27:02.238Z,31.8580
2023-01-12T00:27:13.447Z,31.8640
2023-01-12T00:27:24.726Z,31.8850
2023-01-12T00:27:35.840Z,31.9030
2023-01-12T00:27:47.032Z,31.9090
2023-01-12T00:27:58.255Z,31.9030
2023-01-12T00:28:09.461Z,31.9030
2023-01-12T00:28:20.636Z,31.8420
2023-01-12T00:28:31.835Z,31.8420
2023-01-12T00:28:42.883Z,31.8690
2023-01-12T00:28:53.954Z,31.8850
2023-01-12T00:29:05.119Z,31.8920
2023-01-12T00:29:16.197Z,31.8850
2023-01-12T00:29:27.270Z,31.8690
2023-01-12T00:29:38.408Z,31.7630
2023-01-12T00:29:49.459Z,31.6800
2023-01-12T00:30:00.481Z,31.6800
2023-01-12T00:30:11.680Z,31.7250
2023-01-12T00:30:22.878Z,31.7800
2023-01-12T00:30:34.079Z,31.8250
2023-01-12T00:30:45.271Z,31.8250
2023-01-12T00:30:56.534Z,31.8140
2023-01-12T00:31:07.689Z,31.8030
2023-01-12T00:31:18.943Z,31.8140
2023-01-12T00:31:30.170Z,31.8310
2023-01-12T00:31:41.271Z,31.7470
2023-01-12T00:31:52.338Z,31.6640
2023-01-12T00:32:03.372Z,31.6760
2023-01-12T00:32:14.560Z,31.7260
2023-01-12T00:32:25.793Z,31.7750
2023-01-12T00:32:36.978Z,31.7260
2023-01-12T00:32:48.155Z,31.6880
2023-01-12T00:32:59.230Z,31.6880
2023-01-12T00:33:10.319Z,31.6150
2023-01-12T00:33:21.437Z,31.5540
2023-01-12T00:33:32.631Z,31.5870
2023-01-12T00:33:43.838Z,31.6760
2023-01-12T00:33:55.046Z,31.7190
2023-01-12T00:34:06.268Z,31.6910
2023-01-12T00:34:17.466Z,31.6850
2023-01-12T00:34:29.682Z,31.7090
2023-01-12T00:34:41.155Z,31.7690
2023-01-12T00:34:52.311Z,31.7300
2023-01-12T00:35:03.519Z,31.6910
2023-01-12T00:35:14.708Z,31.6910
2023-01-12T00:35:25.912Z,31.7090
2023-01-12T00:35:37.115Z,31.7090
2023-01-12T00:35:48.151Z,31.5910
2023-01-12T00:35:59.191Z,31.6130
2023-01-12T00:36:10.433Z,31.6360
2023-01-12T00:36:21.590Z,31.6800
2023-01-12T00:36:32.850Z,31.6360
2023-01-12T00:36:43.996Z,31.6470
2023-01-12T00:36:55.215Z,31.6910
2023-01-12T00:37:06.428Z,31.7140
2023-01-12T00:37:17.599Z,31.6530
2023-01-12T00:37:28.691Z,31.5130
2023-01-12T00:37:39.757Z,31.4470
2023-01-12T00:37:50.878Z,31.4910
2023-01-12T00:38:02.072Z,31.5130
2023-01-12T00:38:13.285Z,31.4910
2023-01-12T00:38:24.472Z,31.5080
2023-01-12T00:38:35.761Z,31.5420
2023-01-12T00:38:46.903Z,31.5580
2023-01-12T00:38:58.075Z,31.4360
2023-01-12T00:39:09.274Z,31.4530
2023-01-12T00:39:20.476Z,31.5020
2023-01-12T00:39:31.533Z,31.5240
2023-01-12T00:39:53.245Z,31.5130
2023-01-12T00:40:02.468Z,31.6530
2023-01-12T00:40:14.267Z,31.6880
2023-01-12T00:40:25.432Z,31.5990
2023-01-12T00:40:36.641Z,31.5760
2023-01-12T00:40:47.829Z,31.5590
2023-01-12T00:40:59.042Z,31.5150
2023-01-12T00:41:10.264Z,31.5310
2023-01-12T00:41:21.439Z,31.5310
2023-01-12T00:41:32.640Z,31.4970
2023-01-12T00:41:43.840Z,31.4360
2023-01-12T00:41:55.036Z,31.3240
2023-01-12T00:42:06.135Z,31.3410
2023-01-12T00:42:17.212Z,31.3240
2023-01-12T00:42:28.314Z,31.3300
2023-01-12T00:42:39.547Z,31.3410
2023-01-12T00:42:50.593Z,31.3750
2023-01-12T00:43:01.660Z,31.4190
2023-01-12T00:43:12.740Z,31.4470
2023-01-12T00:43:23.772Z,31.4470
2023-01-12T00:43:34.838Z,31.4080
2023-01-12T00:43:46.087Z,31.3590
2023-01-12T00:43:57.274Z,31.3190
2023-01-12T00:44:08.473Z,31.4020
2023-01-12T00:44:19.682Z,31.4240
2023-01-12T00:44:30.877Z,31.3750
2023-01-12T00:44:42.077Z,31.3350
2023-01-12T00:44:53.131Z,31.3590
2023-01-12T00:45:04.179Z,31.3130
2023-01-12T00:45:15.351Z,31.3030
2023-01-12T00:45:26.558Z,31.3080
2023-01-12T00:45:37.630Z,31.2700
2023-01-12T00:45:48.738Z,31.2190
2023-01-12T00:45:59.895Z,31.2190
2023-01-12T00:46:11.061Z,31.2970
2023-01-12T00:46:22.308Z,31.2970
2023-01-12T00:46:33.436Z,31.1360
2023-01-12T00:46:44.631Z,30.9700
2023-01-12T00:46:55.682Z,30.9540
2023-01-12T00:47:06.719Z,31.0420
2023-01-12T00:47:17.929Z,31.0480
2023-01-12T00:47:29.113Z,31.0640
2023-01-12T00:47:40.351Z,31.0930
2023-01-12T00:47:51.513Z,31.1030
2023-01-12T00:48:02.727Z,31.0870
2023-01-12T00:48:13.858Z,31.0980
2023-01-12T00:48:24.926Z,31.1650
2023-01-12T00:48:35.990Z,31.1530
2023-01-12T00:48:47.037Z,31.1470
2023-01-12T00:48:58.081Z,31.0530
2023-01-12T00:49:09.276Z,31.0820
2023-01-12T00:49:20.475Z,31.1810
2023-01-12T00:49:31.686Z,31.2300
2023-01-12T00:49:42.879Z,31.2360
2023-01-12T00:49:53.955Z,31.2520
2023-01-12T00:50:05.006Z,31.2920
2023-01-12T00:50:19.192Z,31.3030
2023-01-12T00:50:30.440Z,31.3910
2023-01-12T00:50:41.510Z,31.3410
2023-01-12T00:50:52.551Z,31.3410
2023-01-12T00:51:03.622Z,31.3350
2023-01-12T00:51:14.713Z,31.2810
2023-01-12T00:51:25.912Z,31.2520
2023-01-12T00:51:37.118Z,31.2700
2023-01-12T00:51:48.340Z,31.2700
2023-01-12T00:51:59.512Z,31.2640
2023-01-12T00:52:15.479Z,31.2250
2023-01-12T00:52:31.807Z,31.3350
2023-01-12T00:52:43.250Z,31.4320
2023-01-12T00:52:54.317Z,31.2600
2023-01-12T00:53:05.442Z,30.9670
2023-01-12T00:53:16.476Z,30.9610
2023-01-12T00:53:27.521Z,31.0420
2023-01-12T00:53:38.711Z,31.0370
2023-01-12T00:53:49.777Z,31.1140
2023-01-12T00:54:00.804Z,31.0760
2023-01-12T00:54:11.991Z,31.0480
2023-01-12T00:54:23.197Z,31.1090
2023-01-12T00:54:34.394Z,31.1200
2023-01-12T00:54:45.602Z,31.0980
2023-01-12T00:54:56.648Z,31.0420
2023-01-12T00:55:07.676Z,31.0480
2023-01-12T00:55:18.743Z,31.0640
2023-01-12T00:55:29.760Z,31.0530
2023-01-12T00:55:40.953Z,31.0690
2023-01-12T00:55:52.161Z,31.0980
2023-01-12T00:56:03.368Z,31.0580
2023-01-12T00:56:14.565Z,31.0260
2023-01-12T00:56:25.751Z,30.9700
2023-01-12T00:56:36.951Z,31.0260
2023-01-12T00:56:48.156Z,31.0760
2023-01-12T00:56:59.191Z,31.0760
2023-01-12T00:57:10.231Z,31.0370
2023-01-12T00:57:21.429Z,31.0310
2023-01-12T00:57:32.551Z,31.0690
2023-01-12T00:57:43.664Z,31.0260
2023-01-12T00:57:54.716Z,30.9430
2023-01-12T00:58:05.771Z,30.9990
2023-01-12T00:58:16.823Z,31.0420
2023-01-12T00:58:28.013Z,31.0090
2023-01-12T00:58:39.191Z,30.9700
2023-01-12T00:58:50.394Z,30.9590
2023-01-12T00:59:01.601Z,31.0370
2023-01-12T00:59:12.799Z,31.0930
2023-01-12T00:59:24.032Z,31.0580
2023-01-12T00:59:35.187Z,30.9930
2023-01-12T00:59:46.281Z,31.0200
2023-01-12T00:59:57.421Z,31.0040
2023-01-12T01:00:08.472Z,31.0480
2023-01-12T01:00:19.680Z,31.0580
2023-01-12T01:00:30.870Z,31.0930
2023-01-12T01:00:41.926Z,31.1030
2023-01-12T01:00:52.997Z,31.0370
2023-01-12T01:01:04.226Z,30.9430
2023-01-12T01:01:15.523Z,30.8320
2023-01-12T01:01:26.731Z,30.8540
2023-01-12T01:01:38.015Z,30.8940
2023-01-12T01:01:49.440Z,30.8870
2023-01-12T01:02:00.655Z,30.8110
2023-01-12T01:02:11.948Z,30.6500
2023-01-12T01:02:23.352Z,30.7440
2023-01-12T01:02:34.512Z,30.8320
2023-01-12T01:02:45.675Z,30.7710
2023-01-12T01:02:56.846Z,30.7930
2023-01-12T01:03:07.990Z,30.8600
2023-01-12T01:03:19.051Z,30.8540
2023-01-12T01:03:30.100Z,30.8220
2023-01-12T01:03:41.271Z,30.8160
2023-01-12T01:03:52.472Z,30.7600
2023-01-12T01:04:03.692Z,30.6560
2023-01-12T01:04:14.756Z,30.6500
2023-01-12T01:04:25.838Z,30.7450
2023-01-12T01:04:36.956Z,30.7020
2023-01-12T01:04:48.151Z,30.6240
2023-01-12T01:04:59.361Z,30.7020
2023-01-12T01:05:10.560Z,30.7950
2023-01-12T01:05:21.757Z,30.8550
2023-01-12T01:05:32.954Z,30.8540
2023-01-12T01:05:44.151Z,30.8430
2023-01-12T01:05:55.350Z,30.8810
2023-01-12T01:06:06.558Z,30.9100
2023-01-12T01:06:17.594Z,30.9150
2023-01-12T01:06:28.655Z,30.8430
2023-01-12T01:06:39.854Z,30.8490
2023-01-12T01:06:50.898Z,30.8760
2023-01-12T01:07:01.966Z,30.8940
2023-01-12T01:07:13.110Z,30.9050
2023-01-12T01:07:24.147Z,30.8940
2023-01-12T01:07:35.201Z,30.8540
2023-01-12T01:07:46.418Z,30.8540
2023-01-12T01:07:57.596Z,30.8280
2023-01-12T01:08:08.795Z,30.8010
2023-01-12T01:08:20.012Z,30.7670
2023-01-12T01:08:31.191Z,30.7170
2023-01-12T01:08:42.395Z,30.7340
2023-01-12T01:08:53.450Z,30.7390
2023-01-12T01:09:04.512Z,30.7560
2023-01-12T01:09:15.677Z,30.7170
2023-01-12T01:09:26.870Z,30.6990
2023-01-12T01:09:38.070Z,30.6990
2023-01-12T01:09:49.112Z,30.7490
2023-01-12T01:10:00.187Z,30.7660
2023-01-12T01:10:11.356Z,30.7390
2023-01-12T01:10:22.557Z,30.7050
2023-01-12T01:10:33.589Z,30.7220
2023-01-12T01:10:44.640Z,30.7050
2023-01-12T01:10:55.716Z,30.6280
2023-01-12T01:11:06.787Z,30.6190
2023-01-12T01:11:17.910Z,30.6350
2023-01-12T01:11:29.114Z,30.6290
2023-01-12T01:11:40.149Z,30.6670
2023-01-12T01:11:51.194Z,30.6130
2023-01-12T01:12:02.248Z,30.6460
2023-01-12T01:12:13.295Z,30.6780
2023-01-12T01:12:24.353Z,30.7340
2023-01-12T01:12:35.424Z,30.7670
2023-01-12T01:12:46.659Z,30.7560
2023-01-12T01:12:57.703Z,30.7720
2023-01-12T01:13:08.770Z,30.6620
2023-01-12T01:13:19.932Z,30.6620
2023-01-12T01:13:31.110Z,30.7070
2023-01-12T01:13:42.301Z,30.7390
2023-01-12T01:13:53.350Z,30.7500
2023-01-12T01:14:04.422Z,30.6620
2023-01-12T01:14:15.579Z,30.6460
2023-01-12T01:14:26.785Z,30.7230
2023-01-12T01:14:37.986Z,30.7600
2023-01-12T01:14:49.023Z,30.7100
2023-01-12T01:15:00.058Z,30.6960
2023-01-12T01:15:11.281Z,30.6910
2023-01-12T01:15:22.463Z,30.7020
2023-01-12T01:15:33.646Z,30.6730
2023-01-12T01:15:44.782Z,30.6620
2023-01-12T01:15:55.899Z,30.6960
2023-01-12T01:16:07.005Z,30.6460
2023-01-12T01:16:18.109Z,30.5960
2023-01-12T01:16:29.166Z,30.5470
2023-01-12T01:16:40.221Z,30.3090
2023-01-12T01:16:51.269Z,30.3320
2023-01-12T01:17:02.340Z,30.4470
2023-01-12T01:17:13.511Z,30.4800
2023-01-12T01:17:24.704Z,30.4640
2023-01-12T01:17:35.900Z,30.5140
2023-01-12T01:17:47.130Z,30.5140
2023-01-12T01:17:58.303Z,30.5020
2023-01-12T01:18:09.350Z,30.5250
2023-01-12T01:18:20.499Z,30.5470
2023-01-12T01:18:31.586Z,30.5140
2023-01-12T01:18:42.636Z,30.5140
2023-01-12T01:18:53.670Z,30.5140
2023-01-12T01:19:04.860Z,30.5580
2023-01-12T01:19:16.480Z,30.6190
2023-01-12T01:19:27.593Z,30.6620
2023-01-12T01:19:38.795Z,30.6460
2023-01-12T01:19:49.987Z,30.6460
2023-01-12T01:20:01.216Z,30.6460
2023-01-12T01:20:12.236Z,30.5960
2023-01-12T01:20:23.268Z,30.5720
2023-01-12T01:20:34.459Z,30.6190
2023-01-12T01:20:45.747Z,30.6240
2023-01-12T01:20:56.870Z,30.6350
2023-01-12T01:21:08.060Z,30.6780
2023-01-12T01:21:19.129Z,30.6570
2023-01-12T01:21:30.211Z,30.6400
2023-01-12T01:21:41.345Z,30.5900
2023-01-12T01:21:52.541Z,30.6510
2023-01-12T01:22:03.753Z,30.6780
2023-01-12T01:22:14.785Z,30.6840
2023-01-12T01:22:25.840Z,30.6910
2023-01-12T01:22:37.021Z,30.7230
2023-01-12T01:22:48.255Z,30.6240
2023-01-12T01:22:59.427Z,30.5410
2023-01-12T01:23:10.631Z,30.5520
2023-01-12T01:23:21.822Z,30.5470
2023-01-12T01:23:33.029Z,30.5280
2023-01-12T01:23:44.150Z,30.5780
2023-01-12T01:23:55.221Z,30.5620
2023-01-12T01:24:06.320Z,30.5510
2023-01-12T01:24:17.505Z,30.5670
2023-01-12T01:24:28.550Z,30.4890
2023-01-12T01:24:39.632Z,30.3900
2023-01-12T01:24:50.672Z,30.4420
2023-01-12T01:25:01.734Z,30.5020
2023-01-12T01:25:12.881Z,30.4910
2023-01-12T01:25:24.084Z,30.4580
2023-01-12T01:25:35.158Z,30.4890
2023-01-12T01:25:46.239Z,30.4950
2023-01-12T01:25:57.341Z,30.4890
2023-01-12T01:26:08.543Z,30.5380
2023-01-12T01:26:19.740Z,30.5940
2023-01-12T01:26:30.957Z,30.5630
2023-01-12T01:26:42.166Z,30.5200
2023-01-12T01:26:53.343Z,30.5510
2023-01-12T01:27:04.546Z,30.6050
2023-01-12T01:27:15.741Z,30.6270
2023-01-12T01:27:26.949Z,30.6440
2023-01-12T01:27:37.990Z,30.6660
2023-01-12T01:27:49.070Z,30.6660
2023-01-12T01:28:00.220Z,30.6670
2023-01-12T01:28:11.421Z,30.7070
2023-01-12T01:28:22.749Z,30.7020
2023-01-12T01:28:33.821Z,30.5940
2023-01-12T01:28:45.023Z,30.5410
2023-01-12T01:28:56.226Z,30.5850
2023-01-12T01:29:07.436Z,30.6190
2023-01-12T01:29:18.654Z,30.5330
2023-01-12T01:29:29.821Z,30.3850
2023-01-12T01:29:41.029Z,30.4680
2023-01-12T01:29:52.252Z,30.5280
2023-01-12T01:30:03.438Z,30.5670
2023-01-12T01:30:14.623Z,30.5780
2023-01-12T01:30:25.822Z,30.5330
2023-01-12T01:30:37.024Z,30.3690
2023-01-12T01:30:48.270Z,30.4010
2023-01-12T01:30:59.466Z,30.4230
2023-01-12T01:31:10.639Z,30.4450
2023-01-12T01:31:21.924Z,30.4620
2023-01-12T01:31:33.086Z,30.4790
2023-01-12T01:31:44.189Z,30.5060
2023-01-12T01:31:55.461Z,30.5110
2023-01-12T01:32:06.626Z,30.4340
2023-01-12T01:32:17.675Z,30.4120
2023-01-12T01:32:28.725Z,30.4450
2023-01-12T01:32:39.777Z,30.4070
2023-01-12T01:32:50.847Z,30.3960
2023-01-12T01:33:01.980Z,30.4450
2023-01-12T01:33:13.185Z,30.4950
2023-01-12T01:33:24.401Z,30.5380
2023-01-12T01:33:35.582Z,30.5380
2023-01-12T01:33:46.787Z,30.5620
2023-01-12T01:33:57.985Z,30.5560
2023-01-12T01:34:09.189Z,30.5110
2023-01-12T01:34:20.242Z,30.5450
2023-01-12T01:34:31.320Z,30.5670
2023-01-12T01:34:42.462Z,30.5890
2023-01-12T01:34:53.673Z,30.6050
2023-01-12T01:35:04.883Z,30.5940
2023-01-12T01:35:16.066Z,30.5890
2023-01-12T01:35:27.258Z,30.5890
2023-01-12T01:35:38.483Z,30.5780
2023-01-12T01:35:49.660Z,30.5510
2023-01-12T01:36:00.865Z,30.4120
2023-01-12T01:36:12.061Z,30.3800
2023-01-12T01:36:23.267Z,30.3710
2023-01-12T01:36:34.459Z,30.4490
2023-01-12T01:36:45.528Z,30.4760
2023-01-12T01:36:56.584Z,30.4650
2023-01-12T01:37:07.750Z,30.4540
2023-01-12T01:37:18.806Z,30.4000
2023-01-12T01:37:29.866Z,30.3610
2023-01-12T01:37:41.021Z,30.4490
2023-01-12T01:37:52.250Z,30.4760
2023-01-12T01:38:03.301Z,30.4490
2023-01-12T01:38:14.380Z,30.3710
2023-01-12T01:38:25.512Z,30.3120
2023-01-12T01:38:36.551Z,30.3820
2023-01-12T01:38:47.596Z,30.4050
2023-01-12T01:38:58.782Z,30.4540
2023-01-12T01:39:09.819Z,30.4380
2023-01-12T01:39:20.883Z,30.3710
2023-01-12T01:39:32.059Z,30.3880
2023-01-12T01:39:43.279Z,30.4110
2023-01-12T01:39:54.451Z,30.4430
2023-01-12T01:40:05.666Z,30.3820
2023-01-12T01:40:16.719Z,30.3280
2023-01-12T01:40:27.782Z,30.3770
2023-01-12T01:40:38.961Z,30.3880
2023-01-12T01:40:50.037Z,30.4160
2023-01-12T01:41:01.094Z,30.4490
2023-01-12T01:41:12.220Z,30.4110
2023-01-12T01:41:23.278Z,30.4000
2023-01-12T01:41:34.309Z,30.4270
2023-01-12T01:41:45.503Z,30.3940
2023-01-12T01:41:56.722Z,30.3880
2023-01-12T01:42:07.901Z,30.3880
2023-01-12T01:42:18.954Z,30.4490
2023-01-12T01:42:30.020Z,30.4760
2023-01-12T01:42:41.180Z,30.4930
2023-01-12T01:42:52.392Z,30.4590
2023-01-12T01:43:03.640Z,30.4760
2023-01-12T01:43:14.782Z,30.4210
2023-01-12T01:43:26.023Z,30.4320
2023-01-12T01:43:37.179Z,30.4880
2023-01-12T01:43:48.379Z,30.4430
2023-01-12T01:43:59.585Z,30.4650
2023-01-12T01:44:10.782Z,30.4760
2023-01-12T01:44:21.983Z,30.4000
2023-01-12T01:44:33.042Z,30.4270
2023-01-12T01:44:44.070Z,30.4590
2023-01-12T01:44:55.273Z,30.4930
2023-01-12T01:45:06.463Z,30.4810
2023-01-12T01:45:17.501Z,30.4880
2023-01-12T01:45:28.551Z,30.4170
2023-01-12T01:45:39.739Z,30.3950
2023-01-12T01:45:50.936Z,30.4170
2023-01-12T01:46:02.182Z,30.4230
2023-01-12T01:46:13.359Z,30.4620
2023-01-12T01:46:24.587Z,30.4840
2023-01-12T01:46:35.691Z,30.4990
2023-01-12T01:46:46.825Z,30.4540
2023-01-12T01:46:57.873Z,30.4320
2023-01-12T01:47:09.033Z,30.4050
2023-01-12T01:47:20.094Z,30.3440
2023-01-12T01:47:31.153Z,30.3880
2023-01-12T01:47:42.189Z,30.3940
2023-01-12T01:47:53.250Z,30.3710
2023-01-12T01:48:04.405Z,30.3820
2023-01-12T01:48:15.579Z,30.4270
2023-01-12T01:48:26.790Z,30.4700
2023-01-12T01:48:37.980Z,30.4760
2023-01-12T01:48:49.046Z,30.4700
2023-01-12T01:49:00.131Z,30.4210
2023-01-12T01:49:11.260Z,30.4380
2023-01-12T01:49:22.461Z,30.4760
2023-01-12T01:49:33.500Z,30.4930
2023-01-12T01:49:44.582Z,30.4270
2023-01-12T01:49:55.742Z,30.3880
2023-01-12T01:50:06.959Z,30.3940
2023-01-12T01:50:17.980Z,30.4210
2023-01-12T01:50:29.031Z,30.4270
2023-01-12T01:50:40.069Z,30.4000
2023-01-12T01:50:51.111Z,30.3440
2023-01-12T01:51:02.299Z,30.3000
2023-01-12T01:51:13.509Z,30.3820
2023-01-12T01:51:24.708Z,30.3710
2023-01-12T01:51:35.900Z,30.3820
2023-01-12T01:51:47.101Z,30.4110
2023-01-12T01:51:58.176Z,30.3940
2023-01-12T01:52:09.367Z,30.2450
2023-01-12T01:52:20.385Z,30.2400
2023-01-12T01:52:31.461Z,30.2340
2023-01-12T01:52:42.643Z,30.2340
2023-01-12T01:52:53.826Z,30.2510
2023-01-12T01:53:04.904Z,30.2290
2023-01-12T01:53:15.974Z,30.2290
2023-01-12T01:53:27.015Z,30.2620
2023-01-12T01:53:38.089Z,30.2780
2023-01-12T01:53:49.190Z,30.2780
2023-01-12T01:54:00.227Z,30.3060
2023-01-12T01:54:11.287Z,30.2830
2023-01-12T01:54:22.505Z,30.3170
2023-01-12T01:54:33.549Z,30.3000
2023-01-12T01:54:44.617Z,30.2620
2023-01-12T01:54:55.751Z,30.2400
2023-01-12T01:55:06.824Z,30.2670
2023-01-12T01:55:17.892Z,30.2890
2023-01-12T01:55:29.039Z,30.3120
2023-01-12T01:55:40.241Z,30.2890
2023-01-12T01:55:51.339Z,30.2720
2023-01-12T01:56:02.382Z,30.2670
2023-01-12T01:56:13.419Z,30.2830
2023-01-12T01:56:24.491Z,30.3060
2023-01-12T01:56:35.556Z,30.3390
2023-01-12T01:56:46.619Z,30.3500
2023-01-12T01:56:57.690Z,30.3390
2023-01-12T01:57:08.746Z,30.3000
2023-01-12T01:57:19.800Z,30.2780
2023-01-12T01:57:30.892Z,30.2860
2023-01-12T01:57:41.986Z,30.3000
2023-01-12T01:57:53.028Z,30.2680
2023-01-12T01:58:04.091Z,30.2190
2023-01-12T01:58:15.176Z,30.2410
2023-01-12T01:58:26.311Z,30.2470
2023-01-12T01:58:37.414Z,30.2520
2023-01-12T01:58:48.458Z,30.2570
2023-01-12T01:58:59.508Z,30.2570
2023-01-12T01:59:10.587Z,30.2240
2023-01-12T01:59:21.683Z,30.2620
2023-01-12T01:59:32.877Z,30.2570
2023-01-12T01:59:43.927Z,30.3020
2023-01-12T01:59:55.001Z,30.2860
2023-01-12T02:00:06.166Z,30.2140
2023-01-12T02:00:17.206Z,30.1420
2023-01-12T02:00:28.246Z,30.1750
2023-01-12T02:00:39.456Z,30.2190
2023-01-12T02:00:50.562Z,30.2520
2023-01-12T02:01:01.652Z,30.2610
2023-01-12T02:01:12.784Z,30.2800
2023-01-12T02:01:23.962Z,30.2910
2023-01-12T02:01:35.225Z,30.3130
2023-01-12T02:01:46.693Z,30.3510
2023-01-12T02:01:57.826Z,30.3400
2023-01-12T02:02:08.911Z,30.3020
2023-01-12T02:02:19.991Z,30.2970
2023-01-12T02:02:31.115Z,30.2860
2023-01-12T02:02:42.177Z,30.2470
2023-01-12T02:02:53.306Z,30.2680
2023-01-12T02:03:04.464Z,30.2250
2023-01-12T02:03:15.619Z,30.1860
2023-01-12T02:03:26.799Z,30.1570
2023-01-12T02:03:37.996Z,30.1230
2023-01-12T02:03:49.202Z,30.0740
2023-01-12T02:04:00.388Z,29.9920
2023-01-12T02:04:11.603Z,29.9700
2023-01-12T02:04:22.840Z,30.0080
2023-01-12T02:04:33.906Z,30.0420
2023-01-12T02:04:45.007Z,30.0530
2023-01-12T02:04:56.086Z,30.0740
2023-01-12T02:05:07.127Z,30.0690
2023-01-12T02:05:18.186Z,30.0800
2023-01-12T02:05:29.347Z,30.1010
2023-01-12T02:05:40.551Z,30.0960
2023-01-12T02:05:51.746Z,30.0690
2023-01-12T02:06:02.959Z,30.0580
2023-01-12T02:06:13.987Z,30.0420
2023-01-12T02:06:25.039Z,30.0710
2023-01-12T02:06:36.224Z,30.1260
2023-01-12T02:06:47.266Z,30.1260
2023-01-12T02:06:58.328Z,30.0990
2023-01-12T02:07:09.513Z,30.0760
2023-01-12T02:07:20.564Z,30.0220
2023-01-12T02:07:31.634Z,30.0110
2023-01-12T02:07:42.800Z,30.0810
2023-01-12T02:07:53.992Z,30.1120
2023-01-12T02:08:05.176Z,30.0740
2023-01-12T02:08:16.513Z,30.0630
2023-01-12T02:08:27.556Z,30.0300
2023-01-12T02:08:38.809Z,30.0140
2023-01-12T02:08:49.815Z,30.0530
2023-01-12T02:09:00.867Z,30.0240
2023-01-12T02:09:12.068Z,30.0030
2023-01-12T02:09:23.272Z,29.9660
2023-01-12T02:09:34.308Z,29.9370
2023-01-12T02:09:45.359Z,29.9200
2023-01-12T02:09:56.420Z,29.9920
2023-01-12T02:10:07.500Z,30.0240
2023-01-12T02:10:18.586Z,29.9700
2023-01-12T02:10:29.663Z,29.9590
2023-01-12T02:10:40.708Z,29.9650
2023-01-12T02:10:51.757Z,29.9470
2023-01-12T02:11:02.816Z,29.9810
2023-01-12T02:11:13.879Z,30.0160
2023-01-12T02:11:24.947Z,29.9820
2023-01-12T02:11:36.068Z,29.9720
2023-01-12T02:11:47.279Z,29.9560
2023-01-12T02:11:58.466Z,29.9500
2023-01-12T02:12:09.682Z,29.9660
2023-01-12T02:12:20.869Z,29.9820
2023-01-12T02:12:32.079Z,29.9860
2023-01-12T02:12:43.132Z,29.9650
2023-01-12T02:12:54.211Z,30.0190
2023-01-12T02:13:05.288Z,29.9420
2023-01-12T02:13:16.455Z,30.0220
2023-01-12T02:13:27.817Z,30.0650
2023-01-12T02:13:38.870Z,30.0600
2023-01-12T02:13:49.940Z,30.0220
2023-01-12T02:14:01.012Z,30.0540
2023-01-12T02:14:12.068Z,30.0760
2023-01-12T02:14:23.107Z,30.0990
2023-01-12T02:14:34.175Z,30.0990
2023-01-12T02:14:45.211Z,30.0490
2023-01-12T02:14:56.272Z,29.9660
2023-01-12T02:15:07.344Z,29.8890